Date,TemperatureHighF,TemperatureAvgF,TemperatureLowF,DewpointHighF,DewpointAvgF,DewpointLowF,HumidityHigh,HumidityAvg,HumidityLow,PressureMaxIn,PressureMinIn,WindSpeedMaxMPH,WindSpeedAvgMPH,GustSpeedMaxMPH,PrecipitationSumIn
2013-3-1,29.9,26.1,23.1,28.4,23.7,20.4,94,90,87,30.00,29.81,10,2,11,0.00
2013-3-2,23.1,22.3,21.5,20.9,19.3,-99.9,91,89,86,29.99,29.96,7,-2,10,0.00
2013-3-3,25.2,22.2,20.2,21.8,19.0,17.0,92,88,78,30.02,29.94,9,2,13,0.00
2013-3-4,28.7,20.8,9.5,20.5,16.3,7.3,92,83,64,30.14,30.02,7,2,11,0.00
2013-3-5,38.4,25.6,10.3,27.0,20.4,8.2,92,81,61,30.15,29.80,8,1,16,0.02
2013-3-6,39.7,34.0,28.3,29.9,26.9,23.2,91,75,62,30.14,29.80,9,2,15,0.00
2013-3-7,35.9,32.2,29.9,33.3,29.8,26.8,94,91,86,30.32,30.13,7,2,10,0.01
2013-3-8,39.0,31.6,21.8,30.3,26.1,20.1,94,81,56,30.44,30.32,16,3,19,0.00
2013-3-9,52.9,34.1,21.1,32.5,26.4,19.5,95,77,37,30.45,30.18,5,0,6,0.00
2013-3-10,66.6,51.5,32.1,39.0,31.5,25.6,84,48,32,30.19,29.95,15,4,18,0.00
2013-3-11,60.4,53.2,46.2,44.3,35.6,31.7,92,53,37,29.95,29.61,15,5,18,0.31
2013-3-12,46.1,36.5,31.7,43.6,32.3,25.9,93,85,74,29.96,29.69,10,2,15,0.16
2013-3-13,32.6,28.1,23.2,26.8,24.0,17.5,92,85,67,30.08,29.89,12,2,18,0.00
2013-3-14,29.6,25.2,18.2,20.0,17.1,15.4,90,71,62,30.21,30.08,14,3,18,0.00
2013-3-15,34.9,29.4,16.2,31.7,25.8,-99.9,95,87,75,30.13,29.87,8,-2,15,0.03
2013-3-16,32.9,29.0,22.9,30.6,26.6,20.0,95,91,85,30.03,29.73,8,1,10,0.00
2013-3-17,32.6,25.6,16.5,24.3,19.2,13.4,93,78,54,30.29,30.02,6,1,11,0.00
2013-3-18,34.5,27.8,15.5,32.4,23.7,-99.9,92,85,75,30.26,29.69,15,3,21,0.01
2013-3-19,35.5,29.8,24.3,33.5,25.6,18.9,95,84,66,29.92,29.69,12,3,20,0.00
2013-3-20,29.4,24.6,18.4,24.1,18.8,-99.9,91,80,58,29.93,29.88,10,-1,14,0.00
2013-3-21,26.6,21.5,12.4,23.1,17.4,-99.9,93,85,68,29.89,29.84,12,-2,17,0.00
2013-3-22,28.1,25.4,22.8,23.2,21.6,20.8,93,86,75,30.04,29.87,11,1,14,0.00
2013-3-23,36.5,27.6,20.5,26.5,22.2,17.5,91,81,59,30.10,30.01,6,1,10,0.01
2013-3-24,36.8,26.9,11.1,24.9,19.1,8.8,93,74,54,30.08,29.61,12,2,15,0.02
2013-3-25,36.4,32.8,28.5,32.3,28.4,-99.9,93,85,65,29.78,29.53,8,-2,12,0.13
2013-3-26,41.4,34.0,27.8,32.3,29.6,25.1,91,84,67,30.06,29.78,10,2,13,0.02
2013-3-27,38.3,33.7,31.3,30.9,28.8,-99.9,94,83,65,30.14,30.03,11,-2,14,0.00
2013-3-28,36.2,32.9,30.4,32.6,30.7,28.7,95,92,85,30.27,30.11,5,0,8,0.18
2013-3-29,47.0,36.5,25.4,35.3,28.9,23.1,95,76,46,30.27,30.19,10,1,14,0.04
2013-3-30,54.3,35.9,19.5,32.4,25.0,17.8,95,70,34,30.26,30.04,6,1,9,0.00
2013-3-31,52.6,42.2,32.2,43.0,34.9,26.8,91,77,45,30.04,29.67,12,2,16,0.06